createdAt,value
2022-07-29T00:00:11.359Z,11.94
2022-07-29T00:01:19.736Z,11.79
2022-07-29T00:02:17.010Z,11.66
2022-07-29T00:03:20.760Z,11.69
2022-07-29T00:04:22.838Z,12.65
2022-07-29T00:05:24.807Z,12.15
2022-07-29T00:06:27.374Z,11.91
2022-07-29T00:07:29.331Z,11.52
2022-07-29T00:08:31.288Z,12.13
2022-07-29T00:09:33.437Z,11.93
2022-07-29T00:10:37.543Z,12.15
2022-07-29T00:11:39.513Z,11.20
2022-07-29T00:12:41.465Z,10.98
2022-07-29T00:13:46.490Z,10.72
2022-07-29T00:14:47.206Z,10.59
2022-07-29T00:15:50.278Z,10.45
2022-07-29T00:16:52.497Z,9.39
2022-07-29T00:17:54.499Z,9.91
2022-07-29T00:18:57.299Z,10.59
2022-07-29T00:20:00.247Z,9.78
2022-07-29T00:21:02.200Z,9.99
2022-07-29T00:22:05.379Z,10.41
2022-07-29T00:23:07.334Z,10.34
2022-07-29T00:24:11.131Z,10.05
2022-07-29T00:25:13.182Z,10.28
2022-07-29T00:26:16.055Z,9.93
2022-07-29T00:27:18.008Z,10.88
2022-07-29T00:28:19.962Z,11.01
2022-07-29T00:29:37.364Z,10.78
2022-07-29T00:30:26.730Z,11.13
2022-07-29T00:31:28.724Z,9.98
2022-07-29T00:32:30.739Z,9.73
2022-07-29T00:33:32.688Z,9.86
2022-07-29T00:34:34.643Z,9.92
2022-07-29T00:35:36.600Z,9.43
2022-07-29T00:36:38.645Z,8.67
2022-07-29T00:37:40.602Z,8.81
2022-07-29T00:38:42.557Z,8.23
2022-07-29T00:39:44.517Z,8.10
2022-07-29T00:40:46.662Z,7.68
2022-07-29T00:41:48.618Z,7.58
2022-07-29T00:42:51.294Z,6.57
2022-07-29T00:43:53.750Z,7.34
2022-07-29T00:44:55.705Z,7.27
2022-07-29T00:45:57.654Z,6.69
2022-07-29T00:46:59.846Z,7.13
2022-07-29T00:48:01.866Z,6.36
2022-07-29T00:49:03.845Z,6.47
2022-07-29T00:50:06.078Z,6.57
2022-07-29T00:51:08.034Z,6.75
2022-07-29T00:52:09.914Z,6.73
2022-07-29T00:53:11.937Z,5.91
2022-07-29T00:54:14.226Z,6.28
2022-07-29T00:55:16.458Z,6.59
2022-07-29T00:56:19.741Z,6.07
2022-07-29T00:57:21.695Z,6.65
2022-07-29T00:58:23.644Z,6.32
2022-07-29T00:59:25.603Z,6.39
2022-07-29T01:00:30.314Z,6.41
2022-07-29T01:01:32.710Z,6.25
2022-07-29T01:02:34.802Z,6.51
2022-07-29T01:03:39.175Z,6.54
2022-07-29T01:04:41.201Z,6.58
2022-07-29T01:05:48.143Z,6.20
2022-07-29T01:06:46.946Z,6.30
2022-07-29T01:07:48.898Z,6.59
2022-07-29T01:08:50.849Z,6.02
2022-07-29T01:09:52.804Z,5.87
2022-07-29T01:10:54.958Z,6.71
2022-07-29T01:11:58.557Z,6.97
2022-07-29T01:13:00.503Z,6.51
2022-07-29T01:14:02.453Z,6.82
2022-07-29T01:15:04.409Z,7.84
2022-07-29T01:16:06.707Z,8.25
2022-07-29T01:17:08.722Z,8.85
2022-07-29T01:18:10.669Z,8.60
2022-07-29T01:19:12.730Z,9.84
2022-07-29T01:20:15.399Z,10.08
2022-07-29T01:21:18.379Z,9.88
2022-07-29T01:22:20.325Z,9.29
2022-07-29T01:23:22.381Z,9.55
2022-07-29T01:24:24.342Z,8.09
2022-07-29T01:25:26.294Z,7.76
2022-07-29T01:26:30.189Z,6.91
2022-07-29T01:27:33.983Z,6.72
2022-07-29T01:28:35.937Z,5.95
2022-07-29T01:29:38.832Z,6.37
2022-07-29T01:30:41.678Z,5.60
2022-07-29T01:31:58.554Z,5.36
2022-07-29T01:32:48.672Z,4.96
2022-07-29T01:33:51.016Z,5.53
2022-07-29T01:34:52.973Z,5.56
2022-07-29T01:35:54.846Z,6.05
2022-07-29T01:36:56.772Z,5.38
2022-07-29T01:37:58.729Z,7.09
2022-07-29T01:39:00.675Z,6.67
2022-07-29T01:40:02.834Z,7.23
2022-07-29T01:41:04.803Z,7.18
2022-07-29T01:42:06.739Z,7.31
2022-07-29T01:43:08.896Z,6.81
2022-07-29T01:44:10.858Z,6.29
2022-07-29T01:45:12.801Z,6.21
2022-07-29T01:46:16.666Z,5.81
2022-07-29T01:47:18.675Z,5.57
2022-07-29T01:48:20.707Z,5.33
2022-07-29T01:49:22.766Z,5.26
2022-07-29T01:50:25.123Z,5.53
2022-07-29T01:51:27.074Z,5.41
2022-07-29T01:52:29.031Z,5.29
2022-07-29T01:53:37.789Z,5.14
2022-07-29T01:54:34.779Z,4.73
2022-07-29T01:55:36.733Z,5.56
2022-07-29T01:56:38.880Z,4.67
2022-07-29T01:57:40.839Z,4.97
2022-07-29T01:58:43.096Z,4.50
2022-07-29T01:59:45.051Z,4.63
2022-07-29T02:00:47.313Z,4.64
2022-07-29T02:01:49.316Z,4.54
2022-07-29T02:02:51.932Z,4.95
2022-07-29T02:03:53.893Z,4.53
2022-07-29T02:04:55.871Z,4.70
2022-07-29T02:05:57.894Z,4.71
2022-07-29T02:07:00.146Z,4.93
2022-07-29T02:08:02.106Z,4.57
2022-07-29T02:09:04.058Z,4.68
2022-07-29T02:10:08.175Z,4.52
2022-07-29T02:11:10.116Z,4.96
2022-07-29T02:12:12.063Z,4.66
2022-07-29T02:13:14.037Z,4.69
2022-07-29T02:14:16.272Z,5.24
2022-07-29T02:15:18.433Z,4.55
2022-07-29T02:16:20.755Z,4.85
2022-07-29T02:17:22.748Z,4.93
2022-07-29T02:18:24.701Z,6.01
2022-07-29T02:19:26.655Z,5.10
2022-07-29T02:20:28.810Z,5.51
2022-07-29T02:21:30.762Z,5.23
2022-07-29T02:22:32.713Z,4.91
2022-07-29T02:23:45.302Z,4.80
2022-07-29T02:24:38.343Z,4.61
2022-07-29T02:25:40.204Z,4.39
2022-07-29T02:26:42.253Z,6.07
2022-07-29T02:27:44.207Z,4.41
2022-07-29T02:28:46.161Z,4.08
2022-07-29T02:29:48.215Z,4.21
2022-07-29T02:30:50.336Z,4.25
2022-07-29T02:31:52.943Z,4.14
2022-07-29T02:32:54.889Z,3.75
2022-07-29T02:33:56.840Z,3.94
2022-07-29T02:34:58.823Z,3.90
2022-07-29T02:36:01.164Z,4.21
2022-07-29T02:37:03.109Z,4.28
2022-07-29T02:38:04.966Z,4.19
2022-07-29T02:39:06.910Z,4.89
2022-07-29T02:40:11.016Z,4.21
2022-07-29T02:41:12.974Z,4.35
2022-07-29T02:42:19.941Z,4.25
2022-07-29T02:43:23.557Z,4.40
2022-07-29T02:44:25.378Z,4.20
2022-07-29T02:45:28.375Z,4.55
2022-07-29T02:46:32.589Z,4.08
2022-07-29T02:47:41.915Z,4.23
2022-07-29T02:48:38.312Z,4.20
2022-07-29T02:49:40.265Z,3.93
2022-07-29T02:50:42.313Z,3.87
2022-07-29T02:51:45.069Z,4.03
2022-07-29T02:52:47.249Z,4.12
2022-07-29T02:53:49.194Z,3.97
2022-07-29T02:54:51.148Z,3.85
2022-07-29T02:55:53.098Z,3.88
2022-07-29T02:56:55.264Z,4.37
2022-07-29T02:57:57.210Z,4.03
2022-07-29T02:58:59.164Z,3.94
2022-07-29T03:00:01.214Z,4.41
2022-07-29T03:01:03.171Z,4.19
2022-07-29T03:02:05.270Z,4.95
2022-07-29T03:03:07.178Z,4.54
2022-07-29T03:04:09.047Z,5.23
2022-07-29T03:05:11.182Z,4.87
2022-07-29T03:06:38.520Z,4.41
2022-07-29T03:08:39.368Z,4.61
2022-07-29T03:09:41.317Z,4.46
2022-07-29T03:10:43.476Z,4.51
2022-07-29T03:11:50.680Z,4.27
2022-07-29T03:12:49.125Z,4.11
2022-07-29T03:13:51.289Z,4.33
2022-07-29T03:14:53.237Z,4.17
2022-07-29T03:15:55.220Z,4.05
2022-07-29T03:16:57.549Z,4.09
2022-07-29T03:17:59.497Z,4.57
2022-07-29T03:20:28.910Z,7.05
2022-07-29T03:21:31.484Z,7.33
2022-07-29T03:22:33.430Z,7.98
2022-07-29T03:23:36.913Z,8.47
2022-07-29T03:24:39.076Z,8.11
2022-07-29T03:25:41.028Z,7.25
2022-07-29T03:26:43.183Z,6.50
2022-07-29T03:27:45.342Z,5.37
2022-07-29T03:28:47.299Z,5.73
2022-07-29T03:29:50.626Z,4.86
2022-07-29T03:30:53.460Z,4.83
2022-07-29T03:31:57.149Z,4.32
2022-07-29T03:32:59.302Z,3.87
2022-07-29T03:34:01.255Z,3.81
2022-07-29T03:35:03.207Z,4.14
2022-07-29T03:36:05.362Z,3.43
2022-07-29T03:37:07.374Z,3.70
2022-07-29T03:38:09.269Z,3.91
2022-07-29T03:39:11.220Z,3.97
2022-07-29T03:40:15.020Z,4.00
2022-07-29T03:41:16.971Z,4.33
2022-07-29T03:42:20.662Z,4.63
2022-07-29T03:43:22.718Z,4.73
2022-07-29T03:44:24.674Z,4.83
2022-07-29T03:45:26.629Z,4.85
2022-07-29T03:46:29.746Z,4.51
2022-07-29T03:47:49.561Z,4.38
2022-07-29T03:48:35.656Z,4.25
2022-07-29T03:49:37.608Z,3.83
2022-07-29T03:50:39.660Z,3.69
2022-07-29T03:51:41.612Z,4.09
2022-07-29T03:52:43.569Z,4.03
2022-07-29T03:53:47.361Z,3.88
2022-07-29T03:54:49.314Z,3.83
2022-07-29T03:55:51.266Z,4.46
2022-07-29T03:56:53.344Z,4.19
2022-07-29T03:57:55.274Z,4.05
2022-07-29T03:58:57.227Z,4.32
2022-07-29T03:59:59.182Z,4.12
2022-07-29T04:01:01.338Z,5.01
2022-07-29T04:02:03.369Z,5.29
2022-07-29T04:03:05.339Z,5.72
2022-07-29T04:04:09.138Z,7.05
2022-07-29T04:05:11.002Z,7.41
2022-07-29T04:06:13.327Z,7.78
2022-07-29T04:07:15.203Z,8.32
2022-07-29T04:08:17.157Z,9.08
2022-07-29T04:09:19.105Z,10.69
2022-07-29T04:10:30.367Z,10.76
2022-07-29T04:11:26.599Z,11.15
2022-07-29T04:12:28.556Z,12.91
2022-07-29T04:13:30.499Z,15.48
2022-07-29T04:14:32.450Z,16.57
2022-07-29T04:15:34.433Z,16.76
2022-07-29T04:16:37.077Z,15.04
2022-07-29T04:17:39.134Z,15.77
2022-07-29T04:18:41.082Z,14.32
2022-07-29T04:19:43.137Z,11.37
2022-07-29T04:20:45.301Z,10.24
2022-07-29T04:21:47.451Z,7.55
2022-07-29T04:22:50.024Z,6.13
2022-07-29T04:23:53.811Z,5.11
2022-07-29T04:24:59.031Z,4.93
2022-07-29T04:25:59.458Z,4.89
2022-07-29T04:27:01.516Z,5.01
2022-07-29T04:28:03.480Z,4.80
2022-07-29T04:29:05.442Z,4.60
2022-07-29T04:30:07.882Z,4.28
2022-07-29T04:31:09.894Z,4.45
2022-07-29T04:32:11.889Z,4.59
2022-07-29T04:33:14.971Z,4.60
2022-07-29T04:34:17.207Z,5.24
2022-07-29T04:35:19.692Z,5.18
2022-07-29T04:36:29.535Z,5.11
2022-07-29T04:37:25.852Z,5.62
2022-07-29T04:38:27.832Z,5.92
2022-07-29T04:39:30.482Z,4.90
2022-07-29T04:40:32.933Z,5.41
2022-07-29T04:41:35.080Z,5.21
2022-07-29T04:42:46.406Z,6.35
2022-07-29T04:43:41.351Z,14.54
2022-07-29T04:44:43.817Z,8.07
2022-07-29T04:45:45.760Z,9.85
2022-07-29T04:46:47.953Z,12.30
2022-07-29T04:47:49.980Z,14.03
2022-07-29T04:48:52.026Z,18.18
2022-07-29T04:49:53.979Z,17.64
2022-07-29T04:50:56.341Z,25.49
2022-07-29T04:51:58.296Z,29.44
2022-07-29T04:53:00.246Z,27.36
2022-07-29T04:54:02.197Z,29.01
2022-07-29T04:55:04.160Z,29.35
2022-07-29T04:56:06.412Z,22.66
2022-07-29T04:57:08.371Z,20.01
2022-07-29T04:58:10.334Z,17.93
2022-07-29T04:59:12.174Z,15.24
2022-07-29T05:00:15.663Z,13.70
2022-07-29T05:01:17.638Z,11.92
2022-07-29T05:02:19.732Z,13.44
2022-07-29T05:03:22.545Z,11.91
2022-07-29T05:04:24.487Z,11.22
2022-07-29T05:05:26.437Z,8.21
2022-07-29T05:06:29.106Z,6.37
2022-07-29T05:07:31.063Z,5.15
2022-07-29T05:08:33.125Z,5.39
2022-07-29T05:09:35.070Z,5.26
2022-07-29T05:10:37.435Z,6.26
2022-07-29T05:11:39.386Z,6.09
2022-07-29T05:12:41.233Z,5.97
2022-07-29T05:13:46.061Z,6.05
2022-07-29T05:14:46.879Z,5.72
2022-07-29T05:15:48.904Z,7.37
2022-07-29T05:16:51.299Z,9.73
2022-07-29T05:17:53.258Z,11.45
2022-07-29T05:18:55.208Z,11.78
2022-07-29T05:19:57.159Z,11.43
2022-07-29T05:20:59.419Z,12.73
2022-07-29T05:22:01.365Z,17.05
2022-07-29T05:23:03.348Z,16.09
2022-07-29T05:24:05.273Z,14.85
2022-07-29T05:25:09.283Z,13.64
2022-07-29T05:26:11.529Z,11.33
2022-07-29T05:27:13.488Z,11.05
2022-07-29T05:28:15.436Z,10.01
2022-07-29T05:29:43.112Z,16.48
2022-07-29T05:30:21.387Z,17.46
2022-07-29T05:31:23.395Z,13.89
2022-07-29T05:32:25.400Z,7.08
2022-07-29T05:33:34.813Z,8.17
2022-07-29T05:34:31.157Z,5.77
2022-07-29T05:35:33.099Z,4.81
2022-07-29T05:36:35.355Z,4.87
2022-07-29T05:37:37.297Z,4.67
2022-07-29T05:38:39.163Z,4.29
2022-07-29T05:39:48.581Z,4.41
2022-07-29T05:40:44.912Z,4.07
2022-07-29T05:41:51.762Z,4.37
2022-07-29T05:42:50.669Z,4.17
2022-07-29T05:43:53.126Z,4.12
2022-07-29T05:44:55.386Z,4.48
2022-07-29T05:45:57.520Z,4.61
2022-07-29T05:46:59.897Z,4.33
2022-07-29T05:48:01.868Z,4.81
2022-07-29T05:49:03.913Z,4.77
2022-07-29T05:50:06.062Z,4.45
2022-07-29T05:51:07.941Z,4.99
2022-07-29T05:52:09.866Z,4.38
2022-07-29T05:53:19.345Z,4.16
2022-07-29T05:54:15.807Z,4.17
2022-07-29T05:55:18.077Z,4.23
2022-07-29T05:56:20.958Z,4.39
2022-07-29T05:57:22.905Z,4.07
2022-07-29T05:58:24.866Z,4.27
2022-07-29T05:59:30.252Z,4.15
2022-07-29T06:00:31.637Z,4.66
2022-07-29T06:01:33.862Z,4.69
2022-07-29T06:02:35.840Z,5.19
2022-07-29T06:03:37.792Z,4.77
2022-07-29T06:04:39.682Z,4.74
2022-07-29T06:05:41.695Z,4.83
2022-07-29T06:06:43.854Z,4.59
2022-07-29T06:07:50.090Z,4.65
2022-07-29T06:08:49.915Z,4.53
2022-07-29T06:09:51.875Z,4.61
2022-07-29T06:10:54.019Z,4.25
2022-07-29T06:11:55.974Z,5.05
2022-07-29T06:12:57.926Z,6.93
2022-07-29T06:13:59.878Z,6.82
2022-07-29T06:15:01.828Z,6.79
2022-07-29T06:16:04.039Z,7.18
2022-07-29T06:17:06.081Z,6.53
2022-07-29T06:18:07.992Z,6.23
2022-07-29T06:19:10.361Z,6.05
2022-07-29T06:20:15.337Z,8.44
2022-07-29T06:21:17.441Z,10.19
2022-07-29T06:22:19.387Z,11.01
2022-07-29T06:23:21.755Z,14.96
2022-07-29T06:24:24.030Z,14.74
2022-07-29T06:25:25.870Z,12.58
2022-07-29T06:26:30.426Z,7.89
2022-07-29T06:27:33.347Z,7.43
2022-07-29T06:28:37.145Z,7.74
2022-07-29T06:29:39.094Z,6.19
2022-07-29T06:30:41.186Z,6.47
2022-07-29T06:31:43.208Z,7.51
2022-07-29T06:32:45.168Z,7.48
2022-07-29T06:33:47.117Z,10.24
2022-07-29T06:34:49.089Z,11.20
2022-07-29T06:35:52.433Z,6.38
2022-07-29T06:36:55.017Z,4.72
2022-07-29T06:37:59.530Z,4.23
2022-07-29T06:39:01.276Z,4.89
2022-07-29T06:40:05.239Z,6.64
2022-07-29T06:41:07.158Z,6.63
2022-07-29T06:42:09.387Z,14.43
2022-07-29T06:43:11.349Z,13.74
2022-07-29T06:44:13.543Z,12.70
2022-07-29T06:45:15.755Z,9.13
2022-07-29T06:46:18.855Z,7.47
2022-07-29T06:47:20.792Z,5.44
2022-07-29T06:48:22.741Z,5.03
2022-07-29T06:49:24.729Z,4.16
2022-07-29T06:50:28.488Z,4.52
2022-07-29T06:51:30.964Z,4.24
2022-07-29T06:52:33.129Z,4.41
2022-07-29T06:53:35.077Z,4.20
2022-07-29T06:54:37.027Z,4.05
2022-07-29T06:55:39.079Z,3.75
2022-07-29T06:56:41.226Z,3.79
2022-07-29T06:57:43.204Z,3.37
2022-07-29T06:58:45.453Z,3.45
2022-07-29T06:59:47.330Z,3.57
2022-07-29T07:00:49.416Z,3.42
2022-07-29T07:01:51.456Z,3.08
2022-07-29T07:02:53.535Z,3.69
2022-07-29T07:03:55.520Z,3.70
2022-07-29T07:04:57.469Z,3.99
2022-07-29T07:05:59.424Z,3.78
2022-07-29T07:07:02.401Z,3.25
2022-07-29T07:08:04.968Z,3.44
2022-07-29T07:09:06.925Z,3.20
2022-07-29T07:10:09.794Z,3.37
2022-07-29T07:11:11.848Z,3.31
2022-07-29T07:12:13.803Z,3.59
2022-07-29T07:13:15.753Z,3.39
2022-07-29T07:14:17.966Z,3.48
2022-07-29T07:15:20.276Z,3.59
2022-07-29T07:16:22.793Z,3.66
2022-07-29T07:17:24.795Z,3.65
2022-07-29T07:18:26.744Z,3.98
2022-07-29T07:19:28.695Z,3.60
2022-07-29T07:20:30.955Z,3.18
2022-07-29T07:21:33.420Z,3.00
2022-07-29T07:22:38.964Z,3.06
2022-07-29T07:23:40.396Z,3.04
2022-07-29T07:24:42.349Z,3.33
2022-07-29T07:25:44.313Z,2.85
2022-07-29T07:26:46.875Z,3.05
2022-07-29T07:27:48.827Z,3.24
2022-07-29T07:28:50.733Z,3.15
2022-07-29T07:29:52.653Z,3.16
2022-07-29T07:30:54.786Z,3.20
2022-07-29T07:32:00.945Z,3.69
2022-07-29T07:33:00.538Z,2.72
2022-07-29T07:34:02.487Z,3.39
2022-07-29T07:35:04.438Z,3.03
2022-07-29T07:36:06.696Z,2.98
2022-07-29T07:37:08.644Z,2.98
2022-07-29T07:38:10.596Z,2.94
2022-07-29T07:39:12.556Z,2.82
2022-07-29T07:40:18.557Z,3.19
2022-07-29T07:41:18.810Z,2.91
2022-07-29T07:42:20.865Z,3.01
2022-07-29T07:43:22.819Z,2.76
2022-07-29T07:44:24.782Z,3.03
2022-07-29T07:45:26.777Z,3.01
2022-07-29T07:46:29.191Z,3.21
2022-07-29T07:47:31.144Z,3.52
2022-07-29T07:48:34.936Z,3.19
2022-07-29T07:49:36.893Z,2.99
2022-07-29T07:50:38.941Z,3.11
2022-07-29T07:51:41.203Z,3.20
2022-07-29T07:52:43.156Z,2.91
2022-07-29T07:53:45.109Z,3.02
2022-07-29T07:54:47.061Z,3.20
2022-07-29T07:56:53.479Z,3.47
2022-07-29T07:57:56.507Z,3.36
2022-07-29T07:58:58.454Z,3.46
2022-07-29T08:00:00.412Z,3.44
2022-07-29T08:01:03.731Z,3.46
2022-07-29T08:02:05.885Z,2.91
2022-07-29T08:03:16.843Z,3.37
2022-07-29T08:04:11.696Z,3.40
2022-07-29T08:05:13.649Z,3.70
2022-07-29T08:06:16.934Z,3.49
2022-07-29T08:07:18.891Z,3.23
2022-07-29T08:08:22.150Z,2.92
2022-07-29T08:09:29.687Z,3.27
2022-07-29T08:10:28.123Z,3.07
2022-07-29T08:11:34.073Z,3.72
2022-07-29T08:12:38.681Z,3.37
2022-07-29T08:13:40.845Z,3.11
2022-07-29T08:14:42.797Z,3.41
2022-07-29T08:15:44.848Z,3.24
2022-07-29T08:16:47.026Z,3.25
2022-07-29T08:17:49.060Z,3.27
2022-07-29T08:18:50.931Z,3.08
2022-07-29T08:19:53.073Z,3.13
2022-07-29T08:20:55.236Z,3.25
2022-07-29T08:21:57.179Z,3.25
2022-07-29T08:22:59.130Z,3.17
2022-07-29T08:24:05.301Z,3.11
2022-07-29T08:25:05.385Z,3.11
2022-07-29T08:26:08.576Z,3.02
2022-07-29T08:27:33.528Z,3.55
2022-07-29T08:28:14.323Z,3.43
2022-07-29T08:29:19.905Z,3.55
2022-07-29T08:30:21.402Z,3.41
2022-07-29T08:31:23.421Z,3.05
2022-07-29T08:32:50.988Z,3.04
2022-07-29T08:33:29.098Z,3.10
2022-07-29T08:34:31.155Z,2.75
2022-07-29T08:35:35.695Z,3.10
2022-07-29T08:36:37.207Z,3.22
2022-07-29T08:37:39.160Z,3.28
2022-07-29T08:38:41.116Z,3.26
2022-07-29T08:39:43.075Z,3.21
2022-07-29T08:40:45.153Z,3.11
2022-07-29T08:41:56.606Z,3.77
2022-07-29T08:42:50.898Z,3.21
2022-07-29T08:43:52.819Z,3.12
2022-07-29T08:44:54.986Z,2.97
2022-07-29T08:45:56.976Z,2.81
2022-07-29T08:46:59.202Z,2.85
2022-07-29T08:48:01.154Z,3.16
2022-07-29T08:49:03.167Z,2.91
2022-07-29T08:50:05.464Z,2.83
2022-07-29T08:51:07.407Z,3.27
2022-07-29T08:52:09.875Z,2.84
2022-07-29T08:53:11.830Z,3.13
2022-07-29T08:54:13.778Z,2.90
2022-07-29T08:55:15.734Z,3.29
2022-07-29T08:56:19.735Z,3.39
2022-07-29T08:57:23.325Z,3.31
2022-07-29T08:58:25.953Z,3.31
2022-07-29T08:59:28.047Z,3.53
2022-07-29T09:00:33.076Z,3.38
2022-07-29T09:01:36.548Z,3.27
2022-07-29T09:02:39.024Z,3.52
2022-07-29T09:03:41.065Z,3.34
2022-07-29T09:04:43.443Z,4.40
2022-07-29T09:05:48.091Z,4.40
2022-07-29T09:06:49.296Z,3.42
2022-07-29T09:07:52.061Z,3.45
2022-07-29T09:08:54.028Z,3.29
2022-07-29T09:09:55.966Z,3.14
2022-07-29T09:10:58.113Z,3.26
2022-07-29T09:12:00.094Z,3.16
2022-07-29T09:13:02.020Z,2.97
2022-07-29T09:14:03.997Z,3.31
2022-07-29T09:15:06.039Z,3.35
2022-07-29T09:16:09.543Z,3.16
2022-07-29T09:17:11.820Z,3.34
2022-07-29T09:18:19.477Z,3.11
2022-07-29T09:19:17.385Z,3.65
2022-07-29T09:20:19.986Z,4.11
2022-07-29T09:21:21.975Z,3.93
2022-07-29T09:22:23.930Z,3.99
2022-07-29T09:23:25.853Z,3.93
2022-07-29T09:24:27.796Z,3.97
2022-07-29T09:25:29.751Z,4.07
2022-07-29T09:26:32.119Z,4.48
2022-07-29T09:27:34.065Z,4.29
2022-07-29T09:28:36.015Z,5.30
2022-07-29T09:29:37.974Z,4.67
2022-07-29T09:30:40.439Z,3.70
2022-07-29T09:31:42.515Z,3.67
2022-07-29T09:32:44.341Z,3.75
2022-07-29T09:33:46.245Z,3.52
2022-07-29T09:34:48.144Z,3.92
2022-07-29T09:35:57.092Z,3.97
2022-07-29T09:36:54.583Z,3.80
2022-07-29T09:37:56.771Z,3.80
2022-07-29T09:38:58.722Z,3.65
2022-07-29T09:40:00.689Z,3.89
2022-07-29T09:41:05.407Z,3.74
2022-07-29T09:42:06.314Z,3.88
2022-07-29T09:43:08.375Z,3.83
2022-07-29T09:44:10.319Z,4.66
2022-07-29T09:45:12.278Z,4.65
2022-07-29T09:46:14.944Z,4.31
2022-07-29T09:47:17.205Z,4.95
2022-07-29T09:48:19.165Z,6.83
2022-07-29T09:49:21.193Z,6.97
2022-07-29T09:50:24.940Z,6.29
2022-07-29T09:51:38.446Z,6.24
2022-07-29T09:52:30.667Z,8.42
2022-07-29T09:53:32.605Z,9.51
2022-07-29T09:54:34.559Z,8.97
2022-07-29T09:55:36.417Z,8.45
2022-07-29T09:56:38.876Z,8.19
2022-07-29T09:57:40.829Z,6.67
2022-07-29T09:58:42.776Z,7.31
2022-07-29T09:59:50.053Z,10.65
2022-07-29T10:00:48.577Z,10.75
2022-07-29T10:01:50.784Z,13.61
2022-07-29T10:02:52.807Z,15.31
2022-07-29T10:03:54.791Z,15.75
2022-07-29T10:04:56.744Z,15.59
2022-07-29T10:05:58.702Z,16.78
2022-07-29T10:07:04.655Z,16.80
2022-07-29T10:08:07.108Z,17.73
2022-07-29T10:09:09.059Z,18.28
2022-07-29T10:10:12.356Z,18.02
2022-07-29T10:11:14.398Z,18.28
2022-07-29T10:12:16.351Z,18.70
2022-07-29T10:13:18.310Z,18.25
2022-07-29T10:14:20.262Z,19.69
2022-07-29T10:15:22.208Z,21.88
2022-07-29T10:16:25.930Z,24.71
2022-07-29T10:17:27.959Z,28.49
2022-07-29T10:18:30.118Z,31.79
2022-07-29T10:19:32.068Z,32.33
2022-07-29T10:20:34.431Z,30.07
2022-07-29T10:21:36.849Z,29.13
2022-07-29T10:22:54.475Z,30.90
2022-07-29T10:23:47.037Z,29.62
2022-07-29T10:24:46.332Z,29.64
2022-07-29T10:25:48.282Z,27.36
2022-07-29T10:26:50.660Z,27.19
2022-07-29T10:27:52.615Z,26.13
2022-07-29T10:28:54.551Z,24.42
2022-07-29T10:29:56.535Z,22.85
2022-07-29T10:30:58.613Z,23.37
2022-07-29T10:32:00.538Z,22.77
2022-07-29T10:33:02.467Z,22.17
2022-07-29T10:34:04.417Z,22.26
2022-07-29T10:35:06.375Z,21.99
2022-07-29T10:36:09.316Z,21.56
2022-07-29T10:37:11.341Z,21.13
2022-07-29T10:38:16.544Z,21.08
2022-07-29T10:39:17.060Z,20.09
2022-07-29T10:40:21.359Z,19.94
2022-07-29T10:41:24.434Z,18.79
2022-07-29T10:42:29.669Z,18.09
2022-07-29T10:43:30.190Z,17.53
2022-07-29T10:44:33.985Z,16.79
2022-07-29T10:45:36.751Z,16.60
2022-07-29T10:46:39.256Z,15.43
2022-07-29T10:47:42.981Z,15.24
2022-07-29T10:48:45.025Z,15.23
2022-07-29T10:49:47.130Z,15.39
2022-07-29T10:50:50.402Z,15.07
2022-07-29T10:51:52.672Z,15.28
2022-07-29T10:52:54.624Z,15.95
2022-07-29T10:53:56.593Z,15.82
2022-07-29T10:54:59.968Z,16.03
2022-07-29T10:56:02.111Z,15.56
2022-07-29T10:57:05.909Z,16.44
2022-07-29T10:58:08.167Z,17.62
2022-07-29T10:59:10.132Z,20.02
2022-07-29T11:00:16.953Z,21.58
2022-07-29T11:01:18.942Z,22.88
2022-07-29T11:02:41.975Z,22.15
2022-07-29T11:03:26.789Z,21.77
2022-07-29T11:04:28.793Z,20.75
2022-07-29T11:05:32.310Z,23.83
2022-07-29T11:06:34.738Z,24.49
2022-07-29T11:07:45.780Z,27.39
2022-07-29T11:08:42.236Z,28.06
2022-07-29T11:09:46.035Z,28.08
2022-07-29T11:10:48.187Z,28.21
2022-07-29T11:11:51.549Z,27.44
2022-07-29T11:12:54.760Z,27.66
2022-07-29T11:13:56.985Z,26.18
2022-07-29T11:14:59.277Z,25.21
2022-07-29T11:16:01.226Z,25.53
2022-07-29T11:17:03.180Z,24.87
2022-07-29T11:18:06.967Z,25.00
2022-07-29T11:19:08.933Z,23.90
2022-07-29T11:20:12.529Z,26.71
2022-07-29T11:21:15.191Z,27.55
2022-07-29T11:22:19.291Z,29.35
2022-07-29T11:23:23.088Z,29.34
2022-07-29T11:24:29.070Z,32.67
2022-07-29T11:25:50.321Z,32.71
2022-07-29T11:26:33.254Z,33.18
2022-07-29T11:27:36.741Z,27.51
2022-07-29T11:28:38.788Z,28.03
2022-07-29T11:29:43.053Z,27.39
2022-07-29T11:30:45.463Z,27.31
2022-07-29T11:31:49.260Z,27.89
2022-07-29T11:32:51.213Z,27.00
2022-07-29T11:33:56.911Z,25.77
2022-07-29T11:34:58.083Z,26.43
2022-07-29T11:36:00.734Z,27.29
2022-07-29T11:37:03.837Z,30.62
2022-07-29T11:38:06.297Z,30.17
2022-07-29T11:39:08.255Z,30.81
2022-07-29T11:40:11.368Z,36.08
2022-07-29T11:41:13.724Z,36.48
2022-07-29T11:42:16.274Z,37.47
2022-07-29T11:43:18.939Z,38.66
2022-07-29T11:44:20.885Z,39.05
2022-07-29T11:45:43.055Z,35.68
2022-07-29T11:46:29.294Z,35.32
2022-07-29T11:47:31.388Z,34.23
2022-07-29T11:48:35.142Z,33.31
2022-07-29T11:49:38.119Z,29.68
2022-07-29T11:50:44.584Z,28.99
2022-07-29T11:51:48.586Z,30.65
2022-07-29T11:52:49.966Z,28.48
2022-07-29T11:53:52.483Z,25.21
2022-07-29T11:54:58.249Z,24.29
2022-07-29T11:55:58.623Z,27.24
2022-07-29T11:57:00.795Z,28.92
2022-07-29T11:58:03.727Z,33.02
2022-07-29T11:59:08.521Z,36.55
2022-07-29T12:00:12.050Z,26.53
2022-07-29T12:01:14.339Z,27.02
2022-07-29T12:02:37.201Z,26.15
2022-07-29T12:03:22.546Z,25.20
2022-07-29T12:04:26.341Z,24.84
2022-07-29T12:05:36.371Z,26.29
2022-07-29T12:06:32.300Z,25.62
2022-07-29T12:07:35.141Z,26.91
2022-07-29T12:08:37.734Z,27.43
2022-07-29T12:09:40.325Z,27.35
2022-07-29T12:10:43.696Z,26.96
2022-07-29T12:11:47.493Z,27.25
2022-07-29T12:12:49.654Z,26.76
2022-07-29T12:13:51.602Z,27.27
2022-07-29T12:14:53.955Z,22.60
2022-07-29T12:15:55.949Z,23.22
2022-07-29T12:16:59.886Z,22.57
2022-07-29T12:18:03.995Z,21.49
2022-07-29T12:19:05.869Z,21.11
2022-07-29T12:20:08.016Z,21.49
2022-07-29T12:21:12.495Z,18.65
2022-07-29T12:22:14.194Z,16.44
2022-07-29T12:23:16.746Z,16.73
2022-07-29T12:24:20.543Z,15.76
2022-07-29T12:25:32.259Z,15.23
2022-07-29T12:26:29.973Z,14.71
2022-07-29T12:27:31.931Z,13.98
2022-07-29T12:28:33.885Z,12.52
2022-07-29T12:29:36.956Z,12.35
2022-07-29T12:30:39.946Z,11.27
2022-07-29T12:31:45.319Z,12.26
2022-07-29T12:32:47.526Z,13.06
2022-07-29T12:33:49.477Z,12.59
2022-07-29T12:34:51.433Z,10.65
2022-07-29T12:36:06.193Z,10.61
2022-07-29T12:36:57.392Z,10.52
2022-07-29T12:37:59.337Z,12.07
2022-07-29T12:39:01.307Z,11.39
2022-07-29T12:40:03.652Z,11.27
2022-07-29T12:41:07.138Z,12.62
2022-07-29T12:42:13.743Z,15.43
2022-07-29T12:43:13.293Z,16.14
2022-07-29T12:44:18.221Z,14.42
2022-07-29T12:45:22.148Z,10.85
2022-07-29T12:46:24.542Z,12.27
2022-07-29T12:47:26.635Z,12.64
2022-07-29T12:48:28.593Z,12.70
2022-07-29T12:49:30.544Z,11.94
2022-07-29T12:50:35.877Z,11.72
2022-07-29T12:51:37.932Z,13.07
2022-07-29T12:52:39.983Z,11.02
2022-07-29T12:53:41.936Z,11.99
2022-07-29T12:54:45.218Z,12.13
2022-07-29T12:55:47.378Z,10.41
2022-07-29T12:56:49.533Z,11.07
2022-07-29T12:57:51.591Z,10.49
2022-07-29T12:58:53.547Z,10.16
2022-07-29T12:59:55.430Z,9.48
2022-07-29T13:00:57.676Z,9.40
2022-07-29T13:02:00.073Z,8.67
2022-07-29T13:03:02.295Z,9.07
2022-07-29T13:04:04.230Z,8.51
2022-07-29T13:05:06.182Z,8.33
2022-07-29T13:06:09.458Z,8.09
2022-07-29T13:07:11.418Z,7.90
2022-07-29T13:08:20.078Z,7.39
2022-07-29T13:09:19.010Z,7.99
2022-07-29T13:10:24.340Z,8.93
2022-07-29T13:11:26.602Z,8.09
2022-07-29T13:12:28.548Z,8.31
2022-07-29T13:13:30.604Z,8.43
2022-07-29T13:14:32.564Z,9.11
2022-07-29T13:15:34.507Z,8.94
2022-07-29T13:16:36.918Z,9.02
2022-07-29T13:17:38.928Z,9.36
2022-07-29T13:18:42.730Z,9.09
2022-07-29T13:19:44.678Z,7.25
2022-07-29T13:20:46.831Z,8.25
2022-07-29T13:21:48.995Z,6.36
2022-07-29T13:22:50.945Z,6.22
2022-07-29T13:23:52.893Z,6.81
2022-07-29T13:24:54.848Z,6.31
2022-07-29T13:25:56.796Z,5.71
2022-07-29T13:26:59.061Z,5.65
2022-07-29T13:28:01.008Z,6.45
2022-07-29T13:29:02.966Z,5.57
2022-07-29T13:30:05.173Z,5.97
2022-07-29T13:31:07.120Z,6.01
2022-07-29T13:32:09.135Z,6.49
2022-07-29T13:33:11.067Z,5.24
2022-07-29T13:34:12.966Z,5.74
2022-07-29T13:35:14.869Z,5.45
2022-07-29T13:36:17.339Z,5.43
2022-07-29T13:37:19.179Z,5.59
2022-07-29T13:38:21.137Z,5.13
2022-07-29T13:39:23.190Z,5.20
2022-07-29T13:40:25.357Z,6.08
2022-07-29T13:41:27.298Z,7.16
2022-07-29T13:42:29.353Z,8.89
2022-07-29T13:43:31.318Z,8.20
2022-07-29T13:44:33.272Z,6.28
2022-07-29T13:45:35.246Z,9.40
2022-07-29T13:46:39.565Z,4.89